Time;durP1;ratioP1;P1;durP2;ratioP2;P2;SDS_P1;SDS_P2;PMS_P1;PMS_P2;Temp;Humidity;BMP_temperature;BMP_pressure;BME280_temperature;BME280_humidity;BME280_pressure;Samples;Min_cycle;Max_cycle;Signal;HPM_P1;HPM_P2
2023/09/09 00:02:03;;;;;;;3.63;3.17;;;26.40;52.00;;;;;;5021605;28;20040;-63
2023/09/09 00:04:28;;;;;;;4.63;3.47;;;26.50;52.00;;;;;;5021580;28;20640;-61
2023/09/09 00:06:55;;;;;;;4.22;3.58;;;26.40;51.90;;;;;;5021627;28;20033;-64
2023/09/09 00:09:21;;;;;;;3.70;3.17;;;26.40;51.90;;;;;;5021397;28;20021;-62
2023/09/09 00:11:47;;;;;;;4.45;3.28;;;26.40;51.90;;;;;;5012818;28;20029;-62
2023/09/09 00:14:12;;;;;;;5.00;3.40;;;26.40;51.90;;;;;;5021931;28;20039;-63
2023/09/09 00:16:38;;;;;;;3.63;2.92;;;26.40;51.90;;;;;;5022783;28;20032;-62
2023/09/09 00:19:05;;;;;;;3.75;3.13;;;26.50;52.00;;;;;;5031717;28;20179;-67
2023/09/09 00:21:30;;;;;;;3.75;3.28;;;26.50;51.90;;;;;;5020929;28;20409;-68
2023/09/09 00:23:56;;;;;;;3.70;3.05;;;26.40;51.90;;;;;;5021967;28;20033;-70
2023/09/09 00:26:22;;;;;;;3.55;3.20;;;26.50;51.90;;;;;;5020096;28;20491;-68
2023/09/09 00:28:48;;;;;;;3.85;3.35;;;26.50;51.90;;;;;;5021044;28;20986;-65
2023/09/09 00:31:13;;;;;;;4.93;3.13;;;26.40;51.80;;;;;;5022156;28;20480;-65
2023/09/09 00:33:39;;;;;;;3.65;3.08;;;26.40;51.90;;;;;;5021015;28;20026;-65
2023/09/09 00:36:04;;;;;;;3.85;3.05;;;26.40;51.90;;;;;;5018962;28;20029;-65
2023/09/09 00:38:30;;;;;;;3.70;3.25;;;26.40;51.80;;;;;;5019745;28;20030;-65
2023/09/09 00:41:15;;;;;;;3.67;3.10;;;26.40;51.80;;;;;;5019285;28;20025;-65
2023/09/09 00:43:41;;;;;;;4.13;3.50;;;26.40;51.90;;;;;;5020982;28;20028;-65
2023/09/09 00:46:08;;;;;;;3.65;2.75;;;26.40;51.90;;;;;;5021061;28;20393;-65
2023/09/09 00:48:34;;;;;;;4.03;3.28;;;26.40;51.90;;;;;;5017817;28;20612;-65
2023/09/09 00:51:00;;;;;;;3.53;3.05;;;26.40;51.90;;;;;;5021061;28;20412;-66
2023/09/09 00:53:26;;;;;;;4.55;3.08;;;26.40;51.90;;;;;;5021026;28;20021;-65
2023/09/09 00:55:54;;;;;;;4.07;3.28;;;26.40;51.90;;;;;;5021205;28;20017;-65
2023/09/09 00:58:24;;;;;;;3.90;3.08;;;26.40;51.90;;;;;;5020222;28;20083;-67
2023/09/09 01:00:50;;;;;;;3.80;3.15;;;26.40;51.90;;;;;;5019412;28;20107;-65
2023/09/09 01:03:16;;;;;;;3.60;2.80;;;26.40;52.00;;;;;;5018013;28;20441;-65
2023/09/09 01:05:42;;;;;;;3.50;3.00;;;26.30;52.40;;;;;;5018980;28;20071;-65
2023/09/09 01:08:08;;;;;;;3.40;3.00;;;26.30;51.90;;;;;;5020682;28;20038;-60
2023/09/09 01:10:34;;;;;;;3.67;2.85;;;26.30;51.90;;;;;;5019915;28;20458;-62
2023/09/09 01:12:59;;;;;;;3.60;3.00;;;26.30;51.90;;;;;;5019885;28;20029;-61
2023/09/09 01:15:26;;;;;;;3.38;2.85;;;26.30;52.00;;;;;;5021163;28;20109;-62
2023/09/09 01:17:52;;;;;;;3.53;3.00;;;26.30;52.00;;;;;;5019572;28;20037;-62
2023/09/09 01:20:20;;;;;;;3.28;2.75;;;26.30;52.00;;;;;;5017798;28;20045;-63
2023/09/09 01:22:48;;;;;;;3.42;3.08;;;26.30;52.00;;;;;;5021314;28;20033;-63
2023/09/09 01:25:14;;;;;;;3.40;2.85;;;26.20;51.90;;;;;;5020931;28;20042;-62
2023/09/09 01:27:41;;;;;;;3.10;2.78;;;26.20;52.00;;;;;;5020578;28;20041;-61
2023/09/09 01:30:08;;;;;;;3.75;3.05;;;26.20;52.00;;;;;;5019679;28;20039;-61
2023/09/09 01:32:34;;;;;;;3.67;2.80;;;26.20;52.00;;;;;;5020554;28;20508;-62
2023/09/09 01:35:03;;;;;;;3.33;2.72;;;26.20;52.00;;;;;;5019719;28;20501;-64
2023/09/09 01:37:29;;;;;;;3.60;2.90;;;26.20;52.00;;;;;;5018219;28;20021;-63
2023/09/09 01:39:56;;;;;;;4.10;3.10;;;26.20;52.00;;;;;;5021476;28;20366;-63
2023/09/09 01:42:21;;;;;;;3.50;3.00;;;26.20;52.00;;;;;;5020361;28;20022;-63
2023/09/09 01:44:47;;;;;;;3.30;2.70;;;26.10;52.00;;;;;;5019600;28;20091;-63
2023/09/09 01:47:16;;;;;;;4.03;3.00;;;26.10;52.00;;;;;;5020767;28;20072;-62
2023/09/09 01:49:42;;;;;;;3.53;3.10;;;26.10;52.00;;;;;;5021417;28;20117;-65
2023/09/09 01:52:08;;;;;;;3.60;2.97;;;26.10;52.00;;;;;;5018063;28;20358;-66
2023/09/09 01:54:34;;;;;;;3.33;2.90;;;26.10;52.00;;;;;;5020574;28;20036;-66
2023/09/09 01:57:00;;;;;;;3.58;2.90;;;26.10;52.10;;;;;;5021920;28;20059;-66
2023/09/09 01:59:26;;;;;;;3.58;2.72;;;26.10;52.10;;;;;;5020280;28;20061;-67
2023/09/09 02:01:51;;;;;;;3.33;2.83;;;26.10;52.10;;;;;;5019479;28;20090;-66
2023/09/09 02:04:17;;;;;;;3.40;2.80;;;26.10;52.10;;;;;;5018230;28;20037;-67
2023/09/09 02:06:44;;;;;;;3.38;2.88;;;26.00;52.00;;;;;;5016697;28;20029;-66
2023/09/09 02:09:10;;;;;;;3.20;2.70;;;26.00;52.10;;;;;;5020919;28;20021;-67
2023/09/09 02:11:36;;;;;;;3.20;2.72;;;26.00;52.10;;;;;;5019968;28;20413;-66
2023/09/09 02:14:01;;;;;;;3.35;2.70;;;26.00;52.10;;;;;;5021013;28;20427;-66
2023/09/09 02:16:27;;;;;;;3.13;2.70;;;25.90;52.10;;;;;;5018614;28;20038;-66
2023/09/09 02:18:52;;;;;;;3.20;2.70;;;26.00;52.20;;;;;;5018601;28;20366;-68
2023/09/09 02:21:18;;;;;;;3.40;2.72;;;26.00;52.20;;;;;;5019460;28;20075;-68
2023/09/09 02:23:44;;;;;;;3.15;2.50;;;25.90;52.20;;;;;;5020338;28;20525;-68
2023/09/09 02:26:09;;;;;;;3.28;2.75;;;25.90;52.20;;;;;;5018829;28;20030;-68
2023/09/09 02:28:35;;;;;;;3.65;2.72;;;25.90;52.20;;;;;;5017136;28;20374;-68
2023/09/09 02:31:01;;;;;;;3.03;2.60;;;25.90;52.20;;;;;;5019242;28;20034;-68
2023/09/09 02:33:26;;;;;;;3.35;2.70;;;25.90;52.20;;;;;;5018818;28;20496;-68
2023/09/09 02:35:52;;;;;;;3.10;2.55;;;25.90;52.30;;;;;;5019769;28;20030;-68
2023/09/09 02:38:18;;;;;;;3.03;2.72;;;25.90;52.30;;;;;;5018103;28;20473;-68
2023/09/09 02:40:43;;;;;;;2.88;2.50;;;25.80;52.20;;;;;;5017526;28;20030;-67
2023/09/09 02:43:10;;;;;;;3.20;2.60;;;25.80;52.20;;;;;;5018443;28;20135;-67
2023/09/09 02:45:37;;;;;;;3.05;2.60;;;25.80;52.30;;;;;;5018564;28;20072;-69
2023/09/09 02:48:03;;;;;;;3.30;2.70;;;25.80;52.30;;;;;;5019128;28;20060;-68
2023/09/09 02:50:29;;;;;;;3.42;2.42;;;25.80;52.40;;;;;;5019951;28;20029;-68
2023/09/09 02:52:54;;;;;;;3.00;2.55;;;25.80;52.40;;;;;;5019442;28;20535;-67
2023/09/09 02:55:20;;;;;;;3.10;2.60;;;25.80;52.40;;;;;;5031675;28;20112;-68
2023/09/09 02:57:49;;;;;;;3.58;2.70;;;25.80;52.40;;;;;;5020043;28;20374;-68
2023/09/09 03:00:15;;;;;;;3.20;2.60;;;25.70;52.40;;;;;;5017874;28;20140;-68
2023/09/09 03:02:42;;;;;;;3.38;2.80;;;25.80;52.50;;;;;;5018618;28;20029;-68
2023/09/09 03:05:09;;;;;;;3.30;2.67;;;25.70;52.40;;;;;;5018961;28;20050;-67
2023/09/09 03:07:35;;;;;;;3.42;2.60;;;25.70;52.50;;;;;;5020168;28;20525;-67
2023/09/09 03:10:00;;;;;;;3.15;2.50;;;25.70;52.50;;;;;;5017963;28;20061;-61
2023/09/09 03:12:27;;;;;;;3.50;2.50;;;25.70;52.50;;;;;;5021071;28;20029;-62
2023/09/09 03:14:52;;;;;;;3.10;2.28;;;25.70;52.50;;;;;;5019126;28;20072;-62
2023/09/09 03:17:18;;;;;;;2.75;2.45;;;25.70;52.50;;;;;;5021110;28;20401;-62
2023/09/09 03:19:44;;;;;;;3.30;2.60;;;25.60;52.50;;;;;;5023538;28;20473;-63
2023/09/09 03:22:10;;;;;;;3.00;2.53;;;25.60;52.50;;;;;;5022800;28;20029;-61
2023/09/09 03:24:35;;;;;;;3.28;2.65;;;25.60;52.50;;;;;;5022795;28;20080;-61
2023/09/09 03:27:01;;;;;;;3.33;2.63;;;25.60;52.60;;;;;;5020906;28;20025;-62
2023/09/09 03:29:27;;;;;;;2.97;2.35;;;25.60;52.50;;;;;;5023309;28;20045;-68
2023/09/09 03:31:52;;;;;;;2.92;2.50;;;25.60;52.60;;;;;;5022998;28;20512;-68
2023/09/09 03:34:18;;;;;;;2.97;2.42;;;25.60;52.60;;;;;;5021454;28;20045;-67
2023/09/09 03:36:44;;;;;;;3.15;2.45;;;25.60;52.60;;;;;;5023191;28;20465;-68
2023/09/09 03:39:10;;;;;;;2.83;2.40;;;25.60;52.60;;;;;;5022060;28;20053;-63
2023/09/09 03:41:38;;;;;;;2.70;2.30;;;25.50;52.60;;;;;;5022415;28;20266;-62
2023/09/09 03:44:04;;;;;;;3.00;2.70;;;25.60;52.60;;;;;;5022143;28;20489;-62
2023/09/09 03:46:29;;;;;;;2.75;2.38;;;25.50;52.60;;;;;;5020397;28;20030;-62
2023/09/09 03:48:55;;;;;;;3.30;2.50;;;25.60;52.70;;;;;;5020123;28;20495;-62
2023/09/09 03:51:20;;;;;;;2.70;2.33;;;25.50;52.60;;;;;;5022517;28;20026;-62
2023/09/09 03:53:46;;;;;;;3.15;2.40;;;25.50;52.60;;;;;;5022196;28;20057;-62
2023/09/09 03:56:12;;;;;;;2.97;2.40;;;25.50;52.70;;;;;;5021812;28;20461;-63
2023/09/09 03:58:37;;;;;;;2.90;2.55;;;25.50;52.70;;;;;;5021301;28;20030;-62
2023/09/09 04:01:07;;;;;;;3.15;2.40;;;25.50;52.70;;;;;;5021310;28;20029;-63
2023/09/09 04:03:34;;;;;;;3.10;2.58;;;25.50;52.70;;;;;;5020153;28;20033;-63
2023/09/09 04:06:06;;;;;;;2.70;2.22;;;25.50;52.90;;;;;;5022308;28;20109;-61
2023/09/09 04:08:32;;;;;;;3.17;2.60;;;25.40;52.70;;;;;;5021694;28;20389;-64
2023/09/09 04:10:57;;;;;;;2.90;2.35;;;25.50;52.70;;;;;;5022419;28;20021;-62
2023/09/09 04:13:23;;;;;;;2.92;2.33;;;25.40;52.70;;;;;;5018744;28;20053;-62
2023/09/09 04:15:49;;;;;;;2.90;2.38;;;25.40;52.70;;;;;;5022774;28;20026;-62
2023/09/09 04:18:15;;;;;;;3.10;2.47;;;25.40;52.80;;;;;;5022128;28;20048;-63
2023/09/09 04:20:41;;;;;;;3.00;2.20;;;25.40;52.70;;;;;;5021000;28;20041;-62
2023/09/09 04:23:06;;;;;;;3.10;2.53;;;25.40;52.70;;;;;;5021424;28;20045;-63
2023/09/09 04:25:32;;;;;;;2.90;2.47;;;25.40;52.70;;;;;;5019745;28;20056;-62
2023/09/09 04:27:57;;;;;;;2.92;2.30;;;25.40;52.80;;;;;;5021377;28;20108;-62
2023/09/09 04:30:23;;;;;;;2.83;2.40;;;25.40;52.80;;;;;;5020444;28;20030;-63
2023/09/09 04:32:48;;;;;;;2.88;2.53;;;25.40;53.30;;;;;;5022208;28;20026;-63
2023/09/09 04:35:14;;;;;;;2.78;2.30;;;25.40;52.80;;;;;;5021590;28;20496;-63
2023/09/09 04:37:40;;;;;;;2.80;2.20;;;25.40;52.80;;;;;;5021756;28;20100;-63
2023/09/09 04:40:06;;;;;;;3.00;2.25;;;25.30;52.70;;;;;;5020115;28;20077;-64
2023/09/09 04:42:33;;;;;;;2.60;2.20;;;25.40;52.80;;;;;;5021225;28;20139;-64
2023/09/09 04:44:59;;;;;;;3.10;2.40;;;25.40;52.80;;;;;;5021014;28;20488;-62
2023/09/09 04:47:24;;;;;;;2.85;2.25;;;25.30;52.80;;;;;;5020811;28;20484;-63
2023/09/09 04:49:50;;;;;;;2.65;2.20;;;25.30;52.80;;;;;;5020973;28;20030;-67
2023/09/09 04:52:16;;;;;;;2.88;2.40;;;25.30;52.80;;;;;;5021740;28;20037;-67
2023/09/09 04:54:42;;;;;;;2.72;2.20;;;25.30;52.80;;;;;;5021934;28;20022;-69
2023/09/09 04:57:08;;;;;;;2.88;2.30;;;25.30;52.80;;;;;;5019875;28;20449;-68
2023/09/09 04:59:34;;;;;;;3.00;2.33;;;25.30;52.80;;;;;;5018939;28;20029;-67
2023/09/09 05:02:00;;;;;;;2.92;2.40;;;25.30;52.80;;;;;;5020896;28;20056;-67
2023/09/09 05:04:25;;;;;;;2.75;2.30;;;25.30;52.80;;;;;;5020626;28;20040;-68
2023/09/09 05:06:53;;;;;;;2.60;2.20;;;25.30;52.90;;;;;;5022605;28;20041;-68
2023/09/09 05:09:19;;;;;;;2.78;2.25;;;25.30;52.90;;;;;;5020211;28;20482;-68
2023/09/09 05:11:45;;;;;;;2.92;2.50;;;25.30;52.90;;;;;;5019409;28;20037;-68
2023/09/09 05:14:11;;;;;;;2.70;2.20;;;25.20;52.80;;;;;;5020080;28;20034;-68
2023/09/09 05:16:37;;;;;;;2.78;2.10;;;25.30;52.90;;;;;;5019479;28;20041;-67
2023/09/09 05:19:03;;;;;;;2.80;2.15;;;25.20;52.80;;;;;;5019048;28;20029;-67
2023/09/09 05:21:28;;;;;;;2.70;2.30;;;25.20;52.80;;;;;;5021859;28;20065;-68
2023/09/09 05:23:54;;;;;;;2.60;2.10;;;25.20;52.80;;;;;;5017793;28;20065;-67
2023/09/09 05:26:20;;;;;;;2.50;2.00;;;25.20;52.90;;;;;;5021566;28;20414;-68
2023/09/09 05:28:49;;;;;;;3.03;2.47;;;25.20;52.90;;;;;;5019302;28;20026;-67
2023/09/09 05:31:15;;;;;;;2.85;2.30;;;25.20;52.90;;;;;;5020694;28;20112;-68
2023/09/09 05:33:41;;;;;;;2.60;2.25;;;25.20;52.90;;;;;;5019061;28;20029;-68
2023/09/09 05:36:07;;;;;;;2.70;2.17;;;25.20;52.90;;;;;;5020462;28;20036;-67
2023/09/09 05:38:32;;;;;;;2.75;2.20;;;25.20;52.90;;;;;;5020161;28;20029;-65
2023/09/09 05:40:58;;;;;;;2.70;2.22;;;25.20;52.90;;;;;;5020934;28;20470;-66
2023/09/09 05:43:23;;;;;;;2.92;2.30;;;25.20;52.90;;;;;;5020282;28;20092;-65
2023/09/09 05:45:49;;;;;;;2.67;2.20;;;25.20;53.00;;;;;;5020048;28;20029;-65
2023/09/09 05:48:17;;;;;;;2.83;2.10;;;25.20;53.00;;;;;;5019942;28;20021;-65
2023/09/09 05:50:43;;;;;;;2.70;2.15;;;25.10;52.90;;;;;;5018485;28;20442;-63
2023/09/09 05:53:09;;;;;;;2.53;2.03;;;25.10;52.90;;;;;;5019308;28;20112;-61
2023/09/09 05:55:34;;;;;;;2.83;2.25;;;25.10;52.90;;;;;;5021331;28;20021;-61
2023/09/09 05:58:00;;;;;;;2.63;2.10;;;25.10;52.90;;;;;;5020738;28;20052;-67
2023/09/09 06:00:25;;;;;;;2.78;2.25;;;25.10;52.90;;;;;;5020238;28;20033;-67
2023/09/09 06:02:51;;;;;;;2.92;2.30;;;25.10;52.90;;;;;;5018596;28;20385;-67
2023/09/09 06:05:17;;;;;;;2.72;2.17;;;25.10;52.90;;;;;;5016727;28;20033;-67
2023/09/09 06:07:45;;;;;;;2.72;2.10;;;25.10;52.90;;;;;;5017975;28;20624;-68
2023/09/09 06:10:11;;;;;;;2.53;2.10;;;25.10;52.90;;;;;;5021035;28;20093;-68
2023/09/09 06:12:37;;;;;;;2.60;2.30;;;25.10;52.90;;;;;;5018753;28;20573;-68
2023/09/09 06:15:03;;;;;;;2.70;2.15;;;25.10;52.90;;;;;;5019529;28;20140;-68
2023/09/09 06:17:29;;;;;;;2.58;2.13;;;25.10;52.90;;;;;;5020273;28;20030;-67
2023/09/09 06:19:54;;;;;;;3.47;2.38;;;25.10;53.00;;;;;;5019338;28;20430;-68
2023/09/09 06:22:20;;;;;;;2.50;2.30;;;25.10;53.00;;;;;;5020539;28;20466;-68
2023/09/09 06:24:45;;;;;;;2.78;2.08;;;25.10;53.00;;;;;;5011009;28;20026;-68
2023/09/09 06:27:11;;;;;;;2.47;2.00;;;25.10;53.00;;;;;;5017962;28;20091;-68
2023/09/09 06:29:37;;;;;;;2.60;2.00;;;25.10;53.00;;;;;;5016368;28;20094;-68
2023/09/09 06:32:03;;;;;;;2.72;2.13;;;25.10;53.00;;;;;;5020517;28;20583;-68
2023/09/09 06:34:29;;;;;;;2.70;2.10;;;25.10;53.00;;;;;;5019061;28;20014;-67
2023/09/09 06:36:55;;;;;;;2.53;2.10;;;25.10;53.00;;;;;;5019899;28;20028;-67
2023/09/09 06:39:20;;;;;;;2.90;2.33;;;25.10;53.00;;;;;;5021521;28;20042;-68
2023/09/09 06:41:46;;;;;;;3.20;2.30;;;25.00;52.90;;;;;;5018217;28;20045;-68
2023/09/09 06:44:12;;;;;;;2.65;2.17;;;25.00;52.90;;;;;;5016618;28;20057;-68
2023/09/09 06:46:37;;;;;;;2.53;2.05;;;25.00;52.90;;;;;;5016223;28;20381;-68
2023/09/09 06:49:03;;;;;;;2.78;2.28;;;25.00;53.00;;;;;;5020112;28;20041;-65
2023/09/09 06:51:29;;;;;;;3.03;2.25;;;25.00;53.00;;;;;;5018679;28;20056;-64
2023/09/09 06:53:54;;;;;;;2.55;2.17;;;25.00;53.00;;;;;;5022712;28;20033;-64
2023/09/09 06:56:20;;;;;;;2.40;1.90;;;25.00;53.00;;;;;;5023037;28;20623;-65
2023/09/09 06:58:46;;;;;;;2.80;2.08;;;25.00;53.00;;;;;;5020947;28;20065;-65
2023/09/09 07:01:11;;;;;;;2.80;2.25;;;25.00;52.90;;;;;;5021895;28;20190;-64
2023/09/09 07:03:37;;;;;;;2.65;2.08;;;25.00;53.00;;;;;;5023333;28;20033;-65
2023/09/09 07:06:03;;;;;;;2.42;2.00;;;25.00;53.00;;;;;;5020832;28;20124;-65
2023/09/09 07:08:29;;;;;;;2.85;2.28;;;25.00;53.00;;;;;;5022597;28;20365;-65
2023/09/09 07:10:56;;;;;;;2.70;2.22;;;25.00;53.00;;;;;;5024531;28;20076;-65
2023/09/09 07:13:22;;;;;;;2.80;2.30;;;25.00;53.00;;;;;;5018428;28;20101;-65
2023/09/09 07:15:54;;;;;;;2.83;2.13;;;25.00;53.00;;;;;;5022653;28;20113;-65
2023/09/09 07:18:20;;;;;;;2.72;2.20;;;25.00;53.00;;;;;;5023114;28;20025;-65
2023/09/09 07:20:46;;;;;;;2.70;2.22;;;24.90;53.00;;;;;;5020884;28;20040;-65
2023/09/09 07:23:14;;;;;;;2.75;2.10;;;24.90;53.00;;;;;;5023503;28;20738;-65
2023/09/09 07:25:44;;;;;;;2.85;2.30;;;24.90;53.00;;;;;;5024057;28;20029;-65
2023/09/09 07:28:11;;;;;;;2.90;2.50;;;24.90;53.00;;;;;;5022618;28;20065;-65
2023/09/09 07:30:37;;;;;;;2.80;2.20;;;24.90;53.00;;;;;;5022639;28;20053;-65
2023/09/09 07:33:03;;;;;;;3.00;2.47;;;24.90;53.00;;;;;;5024155;28;20022;-65
2023/09/09 07:35:29;;;;;;;2.70;2.22;;;24.90;53.00;;;;;;5020609;28;20345;-65
2023/09/09 07:37:55;;;;;;;3.10;2.30;;;24.90;53.10;;;;;;5022012;28;20029;-65
2023/09/09 07:40:20;;;;;;;3.05;2.30;;;24.90;53.10;;;;;;5022439;28;20894;-65
2023/09/09 07:42:46;;;;;;;3.03;2.30;;;24.90;53.10;;;;;;5020203;28;20060;-66
2023/09/09 07:45:12;;;;;;;3.30;2.40;;;24.90;53.10;;;;;;5021492;28;20049;-65
2023/09/09 07:47:37;;;;;;;2.80;2.25;;;24.90;53.10;;;;;;5024345;28;20045;-65
2023/09/09 07:50:03;;;;;;;2.88;2.20;;;24.90;53.10;;;;;;5021229;28;20022;-65
2023/09/09 07:52:29;;;;;;;2.97;2.40;;;24.90;53.10;;;;;;5019287;28;20120;-65
2023/09/09 07:54:55;;;;;;;2.80;2.20;;;24.90;53.10;;;;;;5023047;28;20104;-65
2023/09/09 07:57:20;;;;;;;2.88;2.30;;;24.90;53.10;;;;;;5023260;28;20033;-65
2023/09/09 07:59:47;;;;;;;3.00;2.30;;;24.90;53.10;;;;;;5022161;28;20037;-67
2023/09/09 08:02:13;;;;;;;2.75;2.20;;;24.90;53.20;;;;;;5022689;28;20079;-67
2023/09/09 08:04:39;;;;;;;2.75;2.45;;;24.90;53.20;;;;;;5019625;28;20033;-67
2023/09/09 08:07:05;;;;;;;2.70;2.28;;;24.90;53.20;;;;;;5021120;28;20041;-68
2023/09/09 08:09:32;;;;;;;2.78;2.20;;;24.80;53.10;;;;;;5019595;28;20437;-62
2023/09/09 08:11:58;;;;;;;2.75;2.20;;;24.90;53.20;;;;;;5023367;28;20021;-62
2023/09/09 08:14:24;;;;;;;2.55;2.03;;;24.90;53.20;;;;;;5022380;28;20040;-61
2023/09/09 08:16:50;;;;;;;2.80;2.38;;;24.90;53.20;;;;;;5021746;28;20036;-62
2023/09/09 08:19:16;;;;;;;2.88;2.28;;;24.80;53.20;;;;;;5021265;28;20512;-65
2023/09/09 08:21:42;;;;;;;2.85;2.22;;;24.90;53.30;;;;;;5022108;28;20481;-65
2023/09/09 08:24:08;;;;;;;3.28;2.50;;;24.80;53.20;;;;;;5021250;28;20101;-65
2023/09/09 08:26:33;;;;;;;2.80;2.30;;;24.80;53.20;;;;;;5023572;28;20333;-65
2023/09/09 08:28:59;;;;;;;3.25;2.60;;;24.80;53.30;;;;;;5012869;28;20129;-65
2023/09/09 08:31:25;;;;;;;3.13;2.45;;;24.90;53.30;;;;;;5020762;28;20025;-65
2023/09/09 08:33:51;;;;;;;3.00;2.40;;;24.80;53.30;;;;;;5020856;28;20021;-65
2023/09/09 08:36:16;;;;;;;3.20;2.80;;;24.80;53.30;;;;;;5021258;28;20132;-65
2023/09/09 08:38:42;;;;;;;3.55;2.88;;;24.80;53.40;;;;;;5021513;28;20087;-65
2023/09/09 08:41:20;;;;;;;3.05;2.45;;;24.80;53.40;;;;;;5020110;28;20105;-65
2023/09/09 08:43:56;;;;;;;3.28;2.60;;;24.80;53.40;;;;;;5017671;28;20021;-65
2023/09/09 08:46:22;;;;;;;3.40;2.70;;;24.80;53.40;;;;;;5019463;28;20055;-65
2023/09/09 08:48:52;;;;;;;3.20;2.60;;;24.80;53.40;;;;;;5022009;28;20366;-65
2023/09/09 08:51:22;;;;;;;2.97;2.53;;;24.80;53.40;;;;;;5020136;28;20049;-65
2023/09/09 08:53:50;;;;;;;3.17;2.80;;;24.80;53.40;;;;;;5020624;28;20022;-65
2023/09/09 08:56:17;;;;;;;3.50;2.70;;;24.80;53.40;;;;;;5014723;28;20071;-65
2023/09/09 08:58:43;;;;;;;3.05;2.65;;;24.80;53.40;;;;;;5012471;28;20030;-65
2023/09/09 09:01:10;;;;;;;2.83;2.22;;;24.80;53.40;;;;;;5018929;28;20355;-65
2023/09/09 09:03:36;;;;;;;3.00;2.40;;;24.80;53.40;;;;;;5019965;28;20045;-65
2023/09/09 09:06:03;;;;;;;3.22;2.60;;;24.80;53.50;;;;;;5019598;28;20021;-65
2023/09/09 09:08:33;;;;;;;3.08;2.50;;;24.80;53.50;;;;;;5018832;28;20365;-65
2023/09/09 09:11:03;;;;;;;2.92;2.60;;;24.80;53.50;;;;;;5019715;28;20030;-68
2023/09/09 09:13:31;;;;;;;3.13;2.53;;;24.80;53.50;;;;;;5022158;28;20021;-68
2023/09/09 09:15:59;;;;;;;3.30;2.60;;;24.80;53.50;;;;;;5018458;28;20498;-67
2023/09/09 09:18:24;;;;;;;2.80;2.30;;;24.80;53.50;;;;;;5016934;28;20022;-68
2023/09/09 09:20:52;;;;;;;3.00;2.53;;;24.80;53.50;;;;;;5019612;28;20176;-65
2023/09/09 09:23:18;;;;;;;3.65;2.63;;;24.80;53.50;;;;;;5020668;28;20029;-66
2023/09/09 09:25:45;;;;;;;3.00;2.50;;;24.80;53.50;;;;;;5020862;28;20033;-65
2023/09/09 09:28:16;;;;;;;2.60;2.20;;;24.80;53.50;;;;;;5020578;28;20030;-65
2023/09/09 09:30:42;;;;;;;3.17;2.50;;;24.80;53.50;;;;;;5019389;28;20022;-62
2023/09/09 09:33:08;;;;;;;3.50;2.55;;;24.80;53.50;;;;;;5012513;28;20029;-61
2023/09/09 09:35:37;;;;;;;3.08;2.70;;;24.80;53.50;;;;;;5019058;28;20033;-62
2023/09/09 09:38:09;;;;;;;3.30;2.50;;;24.80;53.60;;;;;;5018567;28;20565;-62
2023/09/09 09:40:35;;;;;;;3.40;2.55;;;24.80;53.60;;;;;;5019849;28;20028;-61
2023/09/09 09:43:02;;;;;;;3.25;2.65;;;24.80;53.60;;;;;;5019339;28;20476;-63
2023/09/09 09:45:30;;;;;;;3.33;2.65;;;24.80;53.60;;;;;;5019508;28;20096;-62
2023/09/09 09:47:58;;;;;;;3.03;2.50;;;24.80;53.60;;;;;;5020860;28;20018;-62
2023/09/09 09:50:30;;;;;;;3.28;2.28;;;24.80;53.60;;;;;;5018897;28;20799;-63
2023/09/09 09:53:01;;;;;;;3.15;2.63;;;24.80;53.60;;;;;;5019962;28;20025;-63
2023/09/09 09:55:28;;;;;;;3.00;2.42;;;24.80;53.60;;;;;;5019724;28;20473;-61
2023/09/09 09:57:56;;;;;;;3.17;2.60;;;24.80;53.60;;;;;;5020553;28;20017;-62
2023/09/09 10:00:23;;;;;;;3.30;2.47;;;24.80;53.60;;;;;;5019977;28;20057;-61
2023/09/09 10:02:55;;;;;;;3.25;2.42;;;24.80;53.60;;;;;;5020707;28;20538;-61
2023/09/09 10:05:23;;;;;;;3.40;2.47;;;24.80;53.70;;;;;;5019864;28;20071;-61
2023/09/09 10:07:56;;;;;;;3.10;2.60;;;24.80;53.70;;;;;;5018972;28;20037;-62
2023/09/09 10:10:25;;;;;;;2.85;2.45;;;24.80;53.70;;;;;;5019738;28;20051;-61
2023/09/09 10:13:09;;;;;;;3.00;2.40;;;24.80;53.70;;;;;;5018665;28;20030;-62
2023/09/09 10:15:36;;;;;;;3.10;2.58;;;24.80;53.70;;;;;;5020783;28;20025;-61
2023/09/09 10:18:03;;;;;;;3.20;2.60;;;24.80;53.70;;;;;;5020499;28;20025;-62
2023/09/09 10:20:29;;;;;;;3.10;2.42;;;24.80;53.70;;;;;;5017923;28;20478;-65
2023/09/09 10:22:59;;;;;;;3.38;2.50;;;24.80;53.70;;;;;;5018304;28;20037;-65
2023/09/09 10:25:32;;;;;;;2.95;2.53;;;24.80;53.70;;;;;;5019038;28;20022;-65
2023/09/09 10:28:02;;;;;;;2.97;2.50;;;24.80;53.70;;;;;;5018499;28;20481;-64
2023/09/09 10:30:28;;;;;;;2.97;2.53;;;24.80;53.70;;;;;;5021236;28;20029;-65
2023/09/09 10:32:59;;;;;;;3.22;2.60;;;24.80;53.70;;;;;;5019160;28;20389;-64
2023/09/09 10:35:26;;;;;;;3.25;2.70;;;24.80;53.90;;;;;;5018861;28;20034;-65
2023/09/09 10:37:55;;;;;;;4.28;2.92;;;24.80;53.90;;;;;;4994459;28;20048;-66
2023/09/09 10:40:21;;;;;;;4.50;3.30;;;24.80;53.90;;;;;;5017775;28;20057;-65
2023/09/09 10:42:47;;;;;;;4.30;3.28;;;24.80;53.90;;;;;;5019481;28;20072;-65
2023/09/09 10:45:29;;;;;;;4.07;3.42;;;24.80;53.80;;;;;;5019867;28;20018;-64
2023/09/09 10:48:03;;;;;;;3.47;2.67;;;24.90;53.80;;;;;;5018165;28;20018;-64
2023/09/09 10:50:40;;;;;;;3.95;3.08;;;24.90;53.90;;;;;;5016775;28;20049;-66
2023/09/09 10:53:30;;;;;;;3.45;2.80;;;24.90;53.80;;;;;;5019759;28;20200;-67
2023/09/09 10:56:21;;;;;;;4.05;3.03;;;24.90;53.80;;;;;;5019377;28;20033;-66
2023/09/09 10:58:50;;;;;;;4.18;3.08;;;24.90;53.80;;;;;;5019222;28;20489;-66
2023/09/09 11:01:23;;;;;;;3.88;2.90;;;24.90;53.80;;;;;;5018548;28;20037;-65
2023/09/09 11:03:51;;;;;;;3.40;2.88;;;25.00;53.90;;;;;;5019366;28;20029;-66
2023/09/09 11:06:35;;;;;;;4.03;3.00;;;25.00;53.90;;;;;;5018411;28;20484;-66
2023/09/09 11:09:02;;;;;;;3.17;2.80;;;25.10;53.90;;;;;;5018355;28;20062;-66
2023/09/09 11:11:37;;;;;;;4.07;3.20;;;25.10;54.40;;;;;;5019029;28;20043;-66
2023/09/09 11:14:07;;;;;;;4.38;3.10;;;25.10;53.80;;;;;;5019507;28;20487;-65
2023/09/09 11:16:35;;;;;;;4.10;3.10;;;25.10;53.70;;;;;;5019630;28;20516;-66
2023/09/09 11:19:10;;;;;;;3.78;3.22;;;25.10;53.70;;;;;;5020913;28;20449;-65
2023/09/09 11:21:50;;;;;;;4.18;3.30;;;25.20;53.70;;;;;;5019897;28;20030;-66
2023/09/09 11:24:17;;;;;;;4.35;3.20;;;25.20;53.70;;;;;;5021124;28;20041;-65
2023/09/09 11:26:48;;;;;;;4.35;3.33;;;25.20;53.70;;;;;;5017510;28;20076;-65
2023/09/09 11:29:15;;;;;;;3.40;2.90;;;25.20;53.70;;;;;;5020421;28;20064;-69
2023/09/09 11:31:41;;;;;;;3.47;2.88;;;25.20;53.70;;;;;;5020447;28;20037;-69
2023/09/09 11:34:06;;;;;;;3.67;2.80;;;25.30;53.70;;;;;;5017929;28;20030;-68
2023/09/09 11:36:33;;;;;;;3.50;2.83;;;25.30;53.70;;;;;;5017500;28;20029;-68
2023/09/09 11:39:00;;;;;;;3.17;2.70;;;25.40;53.70;;;;;;5020965;28;20425;-66
2023/09/09 11:41:28;;;;;;;3.05;2.42;;;25.40;53.70;;;;;;5022031;28;20029;-66
2023/09/09 11:44:02;;;;;;;3.00;2.42;;;25.40;53.70;;;;;;5022556;28;20942;-66
2023/09/09 11:46:32;;;;;;;3.15;2.40;;;25.30;53.70;;;;;;5023063;28;20018;-66
2023/09/09 11:48:57;;;;;;;;;;;25.40;53.70;;;;;;5023482;28;20477;-62
2023/09/09 11:51:23;;;;;;;3.47;2.88;;;25.40;53.70;;;;;;5023289;28;19960;-63
2023/09/09 11:53:49;;;;;;;3.10;2.70;;;25.40;53.70;;;;;;5021653;28;20148;-64
2023/09/09 11:56:17;;;;;;;5.32;2.47;;;25.40;53.70;;;;;;5022207;28;20390;-62
2023/09/09 11:58:44;;;;;;;3.90;3.10;;;25.40;53.60;;;;;;5023308;28;20037;-62
2023/09/09 12:01:12;;;;;;;3.25;2.63;;;25.50;53.70;;;;;;5022757;28;20277;-59
2023/09/09 12:03:38;;;;;;;2.88;2.50;;;25.50;53.80;;;;;;5021239;28;20061;-60
2023/09/09 12:06:07;;;;;;;3.30;2.70;;;25.50;53.80;;;;;;5020169;28;20057;-60
2023/09/09 12:08:33;;;;;;;3.80;2.70;;;25.50;53.80;;;;;;5021608;28;20029;-61
2023/09/09 12:11:01;;;;;;;3.20;2.80;;;25.50;53.70;;;;;;5023292;28;20052;-63
2023/09/09 12:13:27;;;;;;;3.17;2.78;;;25.50;53.70;;;;;;5022143;28;20026;-64
2023/09/09 12:15:55;;;;;;;3.13;2.72;;;25.60;53.80;;;;;;5022119;28;20102;-61
2023/09/09 12:18:21;;;;;;;3.60;2.92;;;25.60;53.70;;;;;;5020683;28;20114;-62
2023/09/09 12:21:09;;;;;;;3.28;2.80;;;25.60;53.70;;;;;;5020463;28;20545;-62
2023/09/09 12:23:37;;;;;;;2.80;2.47;;;25.60;53.70;;;;;;5021172;28;20103;-62
2023/09/09 12:26:13;;;;;;;3.35;2.65;;;25.60;53.70;;;;;;5020352;28;20466;-62
2023/09/09 12:28:40;;;;;;;3.15;2.55;;;25.70;53.60;;;;;;5021013;28;20037;-64
2023/09/09 12:31:07;;;;;;;3.78;2.85;;;25.70;53.60;;;;;;5020433;28;20021;-61
2023/09/09 12:33:44;;;;;;;3.30;2.70;;;25.70;53.60;;;;;;5018973;28;20476;-61
2023/09/09 12:36:20;;;;;;;2.95;2.50;;;25.70;53.60;;;;;;5023545;28;20029;-62
2023/09/09 12:38:48;;;;;;;3.75;2.60;;;25.70;53.50;;;;;;5021613;28;20049;-66
2023/09/09 12:41:18;;;;;;;3.20;2.70;;;25.80;53.60;;;;;;5020282;28;20033;-65
2023/09/09 12:43:46;;;;;;;3.17;2.50;;;25.80;53.50;;;;;;5023188;28;20492;-65
2023/09/09 12:46:13;;;;;;;3.10;2.53;;;25.80;53.50;;;;;;5021530;28;20430;-65
2023/09/09 12:48:58;;;;;;;3.15;2.60;;;25.80;53.40;;;;;;5021121;28;20033;-66